createdAt,value
2017-09-04T00:00:02.643Z,7.68
2017-09-04T00:02:29.257Z,6.75
2017-09-04T00:04:55.858Z,7.12
2017-09-04T00:07:22.476Z,6.57
2017-09-04T00:09:49.134Z,5.30
2017-09-04T00:12:15.765Z,4.78
2017-09-04T00:14:42.389Z,4.78
2017-09-04T00:17:08.990Z,4.68
2017-09-04T00:19:35.601Z,4.43
2017-09-04T00:22:02.211Z,4.85
2017-09-04T00:24:28.803Z,4.60
2017-09-04T00:26:55.416Z,4.75
2017-09-04T00:29:22.022Z,4.57
2017-09-04T00:31:48.677Z,4.70
2017-09-04T00:34:15.273Z,5.32
2017-09-04T00:36:41.955Z,5.00
2017-09-04T00:39:08.574Z,5.78
2017-09-04T00:41:35.176Z,5.22
2017-09-04T00:44:01.799Z,4.40
2017-09-04T00:46:28.397Z,4.47
2017-09-04T00:48:54.993Z,4.62
2017-09-04T00:51:21.605Z,4.55
2017-09-04T00:53:48.210Z,4.80
2017-09-04T00:56:14.831Z,4.60
2017-09-04T00:58:41.435Z,5.18
2017-09-04T01:01:08.031Z,4.95
2017-09-04T01:03:34.685Z,4.87
2017-09-04T01:06:01.314Z,4.30
2017-09-04T01:08:27.954Z,4.82
2017-09-04T01:10:54.557Z,5.62
2017-09-04T01:13:21.153Z,5.72
2017-09-04T01:15:47.770Z,5.82
2017-09-04T01:18:14.375Z,5.57
2017-09-04T01:20:40.993Z,5.28
2017-09-04T01:23:07.686Z,5.90
2017-09-04T01:25:34.289Z,5.53
2017-09-04T01:28:00.903Z,5.32
2017-09-04T01:30:27.506Z,5.70
2017-09-04T01:32:54.125Z,6.00
2017-09-04T01:35:20.777Z,5.80
2017-09-04T01:37:47.378Z,6.40
2017-09-04T01:40:14.058Z,6.43
2017-09-04T01:42:40.657Z,6.20
2017-09-04T01:45:07.334Z,6.25
2017-09-04T01:47:33.938Z,9.38
2017-09-04T01:50:00.543Z,8.40
2017-09-04T01:52:27.157Z,8.30
2017-09-04T01:54:53.790Z,7.43
2017-09-04T01:57:20.413Z,6.22
2017-09-04T01:59:47.013Z,6.45
2017-09-04T02:02:13.618Z,5.60
2017-09-04T02:04:40.342Z,5.57
2017-09-04T02:07:06.947Z,5.35
2017-09-04T02:09:33.622Z,4.62
2017-09-04T02:12:00.252Z,4.85
2017-09-04T02:14:26.906Z,4.55
2017-09-04T02:16:53.526Z,4.55
2017-09-04T02:19:20.126Z,4.97
2017-09-04T02:21:46.818Z,4.30
2017-09-04T02:24:13.423Z,5.35
2017-09-04T02:26:40.013Z,4.93
2017-09-04T02:29:06.637Z,5.18
2017-09-04T02:31:33.274Z,5.55
2017-09-04T02:33:59.899Z,5.00
2017-09-04T02:36:26.549Z,5.10
2017-09-04T02:38:53.149Z,4.75
2017-09-04T02:41:19.829Z,4.55
2017-09-04T02:43:46.430Z,4.60
2017-09-04T02:46:13.106Z,4.90
2017-09-04T02:48:39.730Z,5.40
2017-09-04T02:51:06.389Z,4.78
2017-09-04T02:53:33.033Z,6.22
2017-09-04T02:55:59.765Z,7.22
2017-09-04T02:58:26.410Z,6.47
2017-09-04T03:00:53.046Z,7.95
2017-09-04T03:03:19.670Z,6.90
2017-09-04T03:05:46.277Z,7.85
2017-09-04T03:08:12.962Z,7.47
2017-09-04T03:10:39.589Z,7.55
2017-09-04T03:13:06.192Z,7.22
2017-09-04T03:15:32.786Z,6.55
2017-09-04T03:17:59.518Z,6.10
2017-09-04T03:20:26.118Z,6.40
2017-09-04T03:22:52.722Z,6.10
2017-09-04T03:25:19.342Z,7.47
2017-09-04T03:27:45.969Z,6.47
2017-09-04T03:30:12.579Z,7.50
2017-09-04T03:32:39.251Z,5.87
2017-09-04T03:35:05.849Z,7.15
2017-09-04T03:37:32.529Z,7.35
2017-09-04T03:39:59.163Z,7.72
2017-09-04T03:42:25.763Z,7.85
2017-09-04T03:44:52.388Z,7.87
2017-09-04T03:47:19.006Z,7.85
2017-09-04T03:49:45.597Z,7.93
2017-09-04T03:52:12.201Z,8.80
2017-09-04T03:54:38.830Z,9.02
2017-09-04T03:57:05.427Z,7.55
2017-09-04T03:59:32.074Z,6.93
2017-09-04T04:01:58.713Z,8.38
2017-09-04T04:04:25.314Z,7.25
2017-09-04T04:06:51.996Z,9.25
2017-09-04T04:09:18.624Z,8.35
2017-09-04T04:11:45.270Z,6.90
2017-09-04T04:14:11.874Z,8.77
2017-09-04T04:16:38.502Z,9.38
2017-09-04T04:19:05.188Z,8.20
2017-09-04T04:21:31.790Z,8.90
2017-09-04T04:23:58.469Z,8.68
2017-09-04T04:26:25.075Z,8.85
2017-09-04T04:28:51.682Z,9.80
2017-09-04T04:31:18.428Z,8.40
2017-09-04T04:33:45.027Z,8.45
2017-09-04T04:36:11.707Z,9.45
2017-09-04T04:38:38.325Z,8.50
2017-09-04T04:41:04.944Z,10.18
2017-09-04T04:43:31.554Z,9.60
2017-09-04T04:45:58.369Z,8.73
2017-09-04T04:48:25.230Z,9.70
2017-09-04T04:50:51.911Z,8.82
2017-09-04T04:53:18.693Z,8.38
2017-09-04T04:55:45.506Z,9.68
2017-09-04T04:58:12.114Z,8.57
2017-09-04T05:00:38.770Z,9.52
2017-09-04T05:03:05.562Z,7.90
2017-09-04T05:05:33.631Z,8.88
2017-09-04T05:08:00.425Z,9.50
2017-09-04T05:10:27.045Z,8.38
2017-09-04T05:12:53.957Z,8.10
2017-09-04T05:15:20.903Z,7.10
2017-09-04T05:17:47.848Z,8.82
2017-09-04T05:20:14.590Z,8.57
2017-09-04T05:22:41.340Z,7.62
2017-09-04T05:25:07.938Z,7.40
2017-09-04T05:27:34.555Z,6.60
2017-09-04T05:30:01.206Z,6.37
2017-09-04T05:32:27.801Z,7.30
2017-09-04T05:34:54.437Z,8.20
2017-09-04T05:37:21.165Z,7.28
2017-09-04T05:39:47.804Z,7.00
2017-09-04T05:42:14.402Z,7.57
2017-09-04T05:44:41.390Z,8.13
2017-09-04T05:47:08.234Z,8.63
2017-09-04T05:49:35.488Z,9.73
2017-09-04T05:52:02.433Z,10.95
2017-09-04T05:54:29.070Z,11.70
2017-09-04T05:56:55.678Z,15.52
2017-09-04T05:59:22.309Z,13.57
2017-09-04T06:01:48.927Z,11.85
2017-09-04T06:04:15.541Z,12.75
2017-09-04T06:06:45.185Z,12.43
2017-09-04T06:09:13.090Z,14.05
2017-09-04T06:11:39.951Z,13.20
2017-09-04T06:14:06.689Z,10.70
2017-09-04T06:16:33.294Z,10.48
2017-09-04T06:19:00.174Z,10.38
2017-09-04T06:21:27.177Z,10.32
2017-09-04T06:23:54.067Z,11.30
2017-09-04T06:26:20.762Z,10.73
2017-09-04T06:28:48.123Z,9.93
2017-09-04T06:31:14.986Z,9.50
2017-09-04T06:33:41.954Z,8.18
2017-09-04T06:36:08.613Z,10.43
2017-09-04T06:38:35.593Z,8.48
2017-09-04T06:41:02.397Z,10.73
2017-09-04T06:43:29.055Z,11.70
2017-09-04T06:45:55.666Z,10.90
2017-09-04T06:48:22.273Z,11.00
2017-09-04T06:50:48.907Z,9.00
2017-09-04T06:53:15.577Z,9.50
2017-09-04T06:55:42.274Z,10.93
2017-09-04T06:58:09.015Z,9.65
2017-09-04T07:00:35.654Z,11.50
2017-09-04T07:03:02.290Z,10.38
2017-09-04T07:05:28.926Z,9.00
2017-09-04T07:07:55.529Z,9.00
2017-09-04T07:10:22.133Z,7.55
2017-09-04T07:12:48.754Z,7.87
2017-09-04T07:15:15.382Z,9.25
2017-09-04T07:17:41.989Z,9.68
2017-09-04T07:20:08.666Z,10.40
2017-09-04T07:22:35.270Z,12.40
2017-09-04T07:25:01.942Z,10.70
2017-09-04T07:27:28.569Z,10.70
2017-09-04T07:29:55.177Z,9.13
2017-09-04T07:32:21.861Z,10.75
2017-09-04T07:34:48.601Z,9.05
2017-09-04T07:37:15.214Z,9.23
2017-09-04T07:39:41.925Z,9.70
2017-09-04T07:42:08.554Z,9.00
2017-09-04T07:44:35.258Z,10.05
2017-09-04T07:47:01.902Z,9.90
2017-09-04T07:49:28.566Z,10.52
2017-09-04T07:51:55.173Z,10.90
2017-09-04T07:54:21.777Z,11.85
2017-09-04T07:56:48.410Z,12.52
2017-09-04T07:59:15.094Z,11.27
2017-09-04T08:01:41.698Z,9.15
2017-09-04T08:04:08.371Z,8.75
2017-09-04T08:06:35.010Z,8.90
2017-09-04T08:09:01.622Z,11.00
2017-09-04T08:11:28.258Z,9.90
2017-09-04T08:13:54.866Z,10.25
2017-09-04T08:16:21.570Z,12.10
2017-09-04T08:18:48.201Z,11.00
2017-09-04T08:21:14.810Z,11.60
2017-09-04T08:23:41.422Z,12.02
2017-09-04T08:26:08.122Z,11.00
2017-09-04T08:28:34.726Z,10.23
2017-09-04T08:31:01.403Z,10.45
2017-09-04T08:33:28.142Z,9.85
2017-09-04T08:35:54.744Z,9.65
2017-09-04T08:38:21.350Z,9.82
2017-09-04T08:40:48.063Z,9.48
2017-09-04T08:43:14.670Z,10.68
2017-09-04T08:45:41.342Z,11.10
2017-09-04T08:48:08.034Z,9.73
2017-09-04T08:50:34.716Z,9.73
2017-09-04T08:53:01.322Z,11.70
2017-09-04T08:55:28.044Z,10.43
2017-09-04T08:57:54.746Z,10.38
2017-09-04T09:00:21.384Z,9.43
2017-09-04T09:02:48.372Z,10.40
2017-09-04T09:05:15.074Z,10.55
2017-09-04T09:07:41.750Z,10.20
2017-09-04T09:10:08.418Z,11.25
2017-09-04T09:12:35.023Z,9.10
2017-09-04T09:15:01.630Z,11.50
2017-09-04T09:17:28.615Z,10.00
2017-09-04T09:19:55.458Z,9.98
2017-09-04T09:22:22.317Z,8.18
2017-09-04T09:24:48.942Z,8.98
2017-09-04T09:27:15.537Z,7.75
2017-09-04T09:29:42.145Z,8.35
2017-09-04T09:32:08.770Z,7.85
2017-09-04T09:34:35.450Z,8.02
2017-09-04T09:37:02.062Z,8.70
2017-09-04T09:39:28.686Z,7.12
2017-09-04T09:41:55.294Z,7.10
2017-09-04T09:44:21.894Z,7.37
2017-09-04T09:46:48.552Z,7.57
2017-09-04T09:49:15.229Z,7.62
2017-09-04T09:51:41.826Z,7.07
2017-09-04T09:54:08.450Z,6.30
2017-09-04T09:56:35.047Z,7.15
2017-09-04T09:59:01.654Z,6.65
2017-09-04T10:01:28.274Z,6.18
2017-09-04T10:03:54.873Z,6.90
2017-09-04T10:06:21.477Z,7.57
2017-09-04T10:08:48.110Z,6.68
2017-09-04T10:11:14.705Z,6.97
2017-09-04T10:13:41.307Z,6.45
2017-09-04T10:16:07.932Z,5.62
2017-09-04T10:18:34.531Z,5.15
2017-09-04T10:21:01.127Z,5.55
2017-09-04T10:23:27.750Z,4.85
2017-09-04T10:25:54.354Z,5.45
2017-09-04T10:28:20.950Z,5.50
2017-09-04T10:30:47.579Z,4.28
2017-09-04T10:33:14.177Z,5.15
2017-09-04T10:35:40.777Z,4.90
2017-09-04T10:38:07.398Z,4.35
2017-09-04T10:40:33.997Z,4.50
2017-09-04T10:43:00.602Z,4.43
2017-09-04T10:45:27.225Z,4.50
2017-09-04T10:47:53.834Z,4.35
2017-09-04T10:50:20.435Z,4.03
2017-09-04T10:52:47.053Z,4.20
2017-09-04T10:55:13.655Z,3.90
2017-09-04T10:57:40.258Z,3.55
2017-09-04T11:00:07.002Z,3.60
2017-09-04T11:02:33.603Z,2.85
2017-09-04T11:05:00.201Z,3.25
2017-09-04T11:07:26.831Z,2.62
2017-09-04T11:09:53.430Z,3.35
2017-09-04T11:12:20.037Z,3.40
2017-09-04T11:14:46.656Z,3.00
2017-09-04T11:17:13.256Z,3.53
2017-09-04T11:19:39.853Z,3.58
2017-09-04T11:22:06.481Z,3.78
2017-09-04T11:24:33.082Z,3.50
2017-09-04T11:26:59.685Z,3.37
2017-09-04T11:29:26.309Z,3.20
2017-09-04T11:31:52.915Z,3.10
2017-09-04T11:34:19.522Z,3.55
2017-09-04T11:36:46.145Z,3.05
2017-09-04T11:39:12.814Z,3.00
2017-09-04T11:41:39.501Z,2.58
2017-09-04T11:44:06.118Z,2.35
2017-09-04T11:46:32.717Z,3.00
2017-09-04T11:48:59.318Z,2.90
2017-09-04T11:51:25.937Z,3.10
2017-09-04T11:53:52.537Z,2.47
2017-09-04T11:56:19.145Z,3.33
2017-09-04T11:58:45.769Z,2.78
2017-09-04T12:01:12.378Z,2.55
2017-09-04T12:03:38.977Z,2.47
2017-09-04T12:06:05.602Z,2.12
2017-09-04T12:08:32.202Z,2.33
2017-09-04T12:10:58.801Z,2.53
2017-09-04T12:13:25.422Z,2.15
2017-09-04T12:15:52.025Z,3.10
2017-09-04T12:18:18.630Z,2.33
2017-09-04T12:20:45.253Z,2.80
2017-09-04T12:23:11.858Z,2.55
2017-09-04T12:25:38.457Z,2.75
2017-09-04T12:28:05.095Z,2.60
2017-09-04T12:30:31.698Z,3.25
2017-09-04T12:32:58.314Z,2.83
2017-09-04T12:35:24.944Z,3.00
2017-09-04T12:37:51.585Z,3.20
2017-09-04T12:40:18.181Z,3.30
2017-09-04T12:42:44.830Z,2.92
2017-09-04T12:45:11.430Z,3.30
2017-09-04T12:47:38.038Z,3.60
2017-09-04T12:50:04.677Z,3.58
2017-09-04T12:52:31.269Z,3.15
2017-09-04T12:54:57.866Z,3.12
2017-09-04T12:57:24.492Z,2.70
2017-09-04T12:59:51.095Z,2.55
2017-09-04T13:02:17.698Z,2.85
2017-09-04T13:04:44.330Z,2.20
2017-09-04T13:07:10.934Z,2.83
2017-09-04T13:09:37.537Z,2.20
2017-09-04T13:12:09.717Z,2.20
2017-09-04T13:14:42.069Z,2.37
2017-09-04T13:17:14.656Z,1.87
2017-09-04T13:19:57.999Z,2.57
2017-09-04T13:22:40.245Z,2.37
2017-09-04T13:25:12.614Z,1.90
2017-09-04T13:27:57.945Z,2.20
2017-09-04T13:30:30.262Z,2.67
2017-09-04T13:33:16.605Z,1.87
2017-09-04T13:35:48.876Z,2.30
2017-09-04T13:38:21.019Z,2.37
2017-09-04T13:40:53.377Z,2.17
2017-09-04T13:43:35.622Z,1.90
2017-09-04T13:46:07.898Z,2.17
2017-09-04T13:48:40.102Z,2.07
2017-09-04T13:51:12.351Z,2.43
2017-09-04T13:53:44.615Z,1.93
2017-09-04T13:56:28.938Z,2.10
2017-09-04T13:58:58.322Z,2.43
2017-09-04T14:01:42.614Z,2.00
2017-09-04T14:04:12.720Z,1.83
2017-09-04T14:06:49.237Z,1.77
2017-09-04T14:09:36.590Z,2.07
2017-09-04T14:12:08.930Z,2.20
2017-09-04T14:14:51.358Z,1.60
2017-09-04T14:17:23.677Z,2.03
2017-09-04T14:19:50.254Z,1.90
2017-09-04T14:22:16.878Z,2.70
2017-09-04T14:24:43.478Z,2.07
2017-09-04T14:27:10.078Z,1.13
2017-09-04T14:29:36.703Z,1.57
2017-09-04T14:32:03.293Z,1.70
2017-09-04T14:34:29.909Z,1.73
2017-09-04T14:36:56.530Z,1.30
2017-09-04T14:39:23.125Z,1.80
2017-09-04T14:41:49.727Z,1.70
2017-09-04T14:44:27.214Z,1.90
2017-09-04T14:46:56.330Z,1.60
2017-09-04T14:49:22.925Z,1.97
2017-09-04T14:51:49.555Z,1.90
2017-09-04T14:54:16.161Z,2.33
2017-09-04T14:56:42.763Z,1.87
2017-09-04T14:59:09.398Z,2.13
2017-09-04T15:01:35.998Z,2.10
2017-09-04T15:04:02.602Z,1.50
2017-09-04T15:06:29.242Z,1.83
2017-09-04T15:08:55.867Z,1.80
2017-09-04T15:11:22.467Z,2.33
2017-09-04T15:13:49.090Z,1.83
2017-09-04T15:16:15.699Z,1.60
2017-09-04T15:18:42.301Z,1.77
2017-09-04T15:21:08.946Z,1.07
2017-09-04T15:23:35.541Z,1.53
2017-09-04T15:26:02.141Z,1.67
2017-09-04T15:28:28.877Z,1.70
2017-09-04T15:30:55.473Z,1.37
2017-09-04T15:33:22.074Z,1.20
2017-09-04T15:35:48.698Z,1.27
2017-09-04T15:38:15.298Z,1.57
2017-09-04T15:40:41.898Z,1.70
2017-09-04T15:43:08.522Z,1.60
2017-09-04T15:45:35.122Z,1.93
2017-09-04T15:48:01.727Z,1.90
2017-09-04T15:50:28.349Z,1.83
2017-09-04T15:52:54.950Z,1.30
2017-09-04T15:55:21.550Z,1.70
2017-09-04T15:57:48.174Z,1.30
2017-09-04T16:00:14.778Z,1.40
2017-09-04T16:02:41.374Z,1.90
2017-09-04T16:05:07.990Z,1.43
2017-09-04T16:07:38.486Z,1.17
2017-09-04T16:10:05.079Z,1.23
2017-09-04T16:12:32.626Z,1.07
2017-09-04T16:14:59.229Z,1.60
2017-09-04T16:17:41.591Z,1.60
2017-09-04T16:20:23.861Z,2.03
2017-09-04T16:23:10.269Z,1.90
2017-09-04T16:25:38.365Z,2.30
2017-09-04T16:28:08.549Z,2.13
2017-09-04T16:30:54.994Z,2.17
2017-09-04T16:33:42.365Z,1.70
2017-09-04T16:36:23.882Z,2.10
2017-09-04T16:38:50.494Z,2.55
2017-09-04T16:41:22.818Z,2.20
2017-09-04T16:44:07.150Z,2.35
2017-09-04T16:46:50.482Z,3.05
2017-09-04T16:49:22.030Z,2.67
2017-09-04T16:51:51.191Z,2.65
2017-09-04T16:54:18.718Z,2.70
2017-09-04T16:56:55.249Z,2.70
2017-09-04T16:59:21.849Z,3.10
2017-09-04T17:01:48.453Z,2.60
2017-09-04T17:04:15.078Z,3.20
2017-09-04T17:06:41.686Z,3.45
2017-09-04T17:09:08.846Z,2.60
2017-09-04T17:11:35.470Z,2.85
2017-09-04T17:14:02.070Z,2.62
2017-09-04T17:16:28.674Z,3.70
2017-09-04T17:19:10.954Z,3.10
2017-09-04T17:21:37.555Z,3.20
2017-09-04T17:24:04.153Z,3.10
2017-09-04T17:26:30.783Z,2.58
2017-09-04T17:28:57.386Z,3.20
2017-09-04T17:31:23.987Z,2.95
2017-09-04T17:33:50.611Z,3.62
2017-09-04T17:36:17.209Z,2.70
2017-09-04T17:38:43.813Z,3.35
2017-09-04T17:41:10.433Z,3.47
2017-09-04T17:43:37.034Z,3.60
2017-09-04T17:46:03.636Z,3.50
2017-09-04T17:48:30.259Z,3.10
2017-09-04T17:50:56.855Z,3.53
2017-09-04T17:53:23.463Z,3.20
2017-09-04T17:55:50.090Z,3.95
2017-09-04T17:58:16.691Z,3.62
2017-09-04T18:00:43.299Z,5.12
2017-09-04T18:03:09.912Z,5.28
2017-09-04T18:05:36.526Z,5.55
2017-09-04T18:08:03.130Z,5.25
2017-09-04T18:10:29.770Z,4.62
2017-09-04T18:12:56.383Z,5.22
2017-09-04T18:15:22.986Z,4.75
2017-09-04T18:17:49.613Z,4.65
2017-09-04T18:20:16.223Z,5.57
2017-09-04T18:22:42.825Z,4.60
2017-09-04T18:25:09.450Z,4.28
2017-09-04T18:27:36.050Z,5.15
2017-09-04T18:30:02.651Z,4.37
2017-09-04T18:32:29.278Z,6.18
2017-09-04T18:34:55.878Z,5.53
2017-09-04T18:37:22.477Z,5.60
2017-09-04T18:39:49.102Z,6.25
2017-09-04T18:42:15.702Z,5.60
2017-09-04T18:44:42.302Z,4.80
2017-09-04T18:47:08.917Z,5.75
2017-09-04T18:49:35.520Z,4.93
2017-09-04T18:52:02.121Z,5.80
2017-09-04T18:54:28.754Z,5.75
2017-09-04T18:56:55.350Z,5.50
2017-09-04T18:59:21.950Z,5.15
2017-09-04T19:01:48.573Z,6.00
2017-09-04T19:04:15.179Z,6.43
2017-09-04T19:06:41.786Z,7.12
2017-09-04T19:09:08.415Z,5.53
2017-09-04T19:11:35.078Z,5.12
2017-09-04T19:14:01.687Z,5.85
2017-09-04T19:16:28.310Z,5.50
2017-09-04T19:18:54.990Z,5.60
2017-09-04T19:21:21.590Z,6.07
2017-09-04T19:23:48.263Z,5.70
2017-09-04T19:26:14.870Z,5.18
2017-09-04T19:28:41.466Z,7.10
2017-09-04T19:31:08.093Z,6.00
2017-09-04T19:33:34.702Z,5.90
2017-09-04T19:36:01.306Z,7.57
2017-09-04T19:38:27.930Z,8.95
2017-09-04T19:40:54.534Z,7.72
2017-09-04T19:43:21.135Z,7.20
2017-09-04T19:45:47.762Z,7.78
2017-09-04T19:48:14.357Z,7.43
2017-09-04T19:50:40.967Z,7.70
2017-09-04T19:53:07.598Z,8.48
2017-09-04T19:55:34.198Z,8.23
2017-09-04T19:58:00.805Z,7.50
2017-09-04T20:00:27.425Z,7.22
2017-09-04T20:02:54.966Z,8.20
2017-09-04T20:05:21.570Z,8.60
2017-09-04T20:07:48.195Z,7.50
2017-09-04T20:10:14.798Z,7.53
2017-09-04T20:12:41.400Z,7.00
2017-09-04T20:15:08.018Z,7.60
2017-09-04T20:17:34.622Z,7.55
2017-09-04T20:20:01.233Z,8.23
2017-09-04T20:22:27.849Z,8.75
2017-09-04T20:24:54.455Z,8.23
2017-09-04T20:27:21.044Z,7.62
2017-09-04T20:29:47.674Z,6.62
2017-09-04T20:32:14.283Z,8.25
2017-09-04T20:34:40.892Z,6.47
2017-09-04T20:37:07.509Z,6.37
2017-09-04T20:39:34.123Z,6.90
2017-09-04T20:42:00.725Z,6.62
2017-09-04T20:44:27.351Z,5.93
2017-09-04T20:46:53.955Z,6.25
2017-09-04T20:49:20.553Z,6.22
2017-09-04T20:51:47.178Z,6.05
2017-09-04T20:54:13.773Z,6.93
2017-09-04T20:56:40.377Z,6.62
2017-09-04T20:59:07.002Z,7.32
2017-09-04T21:01:33.590Z,6.50
2017-09-04T21:04:00.184Z,6.10
2017-09-04T21:06:26.814Z,6.30
2017-09-04T21:08:53.422Z,6.32
2017-09-04T21:11:20.022Z,6.85
2017-09-04T21:13:46.645Z,7.12
2017-09-04T21:16:13.249Z,6.50
2017-09-04T21:18:39.850Z,6.57
2017-09-04T21:21:06.461Z,5.95
2017-09-04T21:23:33.070Z,7.15
2017-09-04T21:25:59.666Z,6.10
2017-09-04T21:28:26.292Z,7.20
2017-09-04T21:30:52.890Z,6.07
2017-09-04T21:33:19.494Z,6.40
2017-09-04T21:35:46.113Z,6.60
2017-09-04T21:38:12.719Z,7.07
2017-09-04T21:40:39.321Z,6.60
2017-09-04T21:43:05.949Z,7.93
2017-09-04T21:45:32.550Z,6.50
2017-09-04T21:47:59.158Z,7.07
2017-09-04T21:50:25.785Z,6.93
2017-09-04T21:52:52.389Z,8.23
2017-09-04T21:55:19.001Z,7.70
2017-09-04T21:57:45.705Z,7.95
2017-09-04T22:00:12.309Z,7.60
2017-09-04T22:02:38.911Z,7.20
2017-09-04T22:05:05.529Z,8.20
2017-09-04T22:07:32.162Z,9.30
2017-09-04T22:09:58.767Z,8.77
2017-09-04T22:12:25.390Z,8.75
2017-09-04T22:14:51.993Z,8.23
2017-09-04T22:17:18.595Z,8.65
2017-09-04T22:19:45.255Z,8.20
2017-09-04T22:22:11.854Z,7.10
2017-09-04T22:24:38.458Z,7.95
2017-09-04T22:27:05.111Z,7.70
2017-09-04T22:29:31.714Z,8.98
2017-09-04T22:31:58.318Z,9.52
2017-09-04T22:34:24.950Z,8.32
2017-09-04T22:36:51.549Z,9.10
2017-09-04T22:39:18.154Z,7.82
2017-09-04T22:41:44.802Z,8.82
2017-09-04T22:44:11.439Z,8.10
2017-09-04T22:46:38.694Z,8.68
2017-09-04T22:49:05.318Z,7.20
2017-09-04T22:51:31.926Z,8.93
2017-09-04T22:53:58.524Z,7.30
2017-09-04T22:56:25.156Z,9.25
2017-09-04T22:58:52.655Z,8.35
2017-09-04T23:01:19.258Z,8.25
2017-09-04T23:03:45.880Z,7.50
2017-09-04T23:06:12.487Z,9.60
2017-09-04T23:08:39.089Z,9.13
2017-09-04T23:11:05.719Z,9.40
2017-09-04T23:13:32.330Z,9.48
2017-09-04T23:15:58.934Z,8.70
2017-09-04T23:18:25.555Z,8.80
2017-09-04T23:20:52.158Z,9.20
2017-09-04T23:23:18.769Z,8.68
2017-09-04T23:25:45.398Z,8.52
2017-09-04T23:28:11.993Z,8.70
2017-09-04T23:30:38.593Z,8.00
2017-09-04T23:33:05.215Z,8.82
2017-09-04T23:35:31.814Z,7.75
2017-09-04T23:37:58.521Z,8.05
2017-09-04T23:40:25.145Z,7.95
2017-09-04T23:42:51.737Z,8.15
2017-09-04T23:45:18.370Z,8.30
2017-09-04T23:47:44.970Z,8.52
2017-09-04T23:50:11.570Z,7.55
2017-09-04T23:52:38.165Z,8.40
2017-09-04T23:55:04.799Z,8.20
2017-09-04T23:57:31.402Z,8.32
2017-09-04T23:59:57.998Z,8.27
